createdAt,value
2018-12-27T00:00:08.518Z,0.37
2018-12-27T00:01:06.228Z,0.37
2018-12-27T00:02:05.701Z,0.44
2018-12-27T00:03:05.669Z,0.37
2018-12-27T00:04:05.691Z,0.37
2018-12-27T00:05:05.709Z,0.31
2018-12-27T00:06:06.980Z,0.37
2018-12-27T00:07:06.210Z,0.37
2018-12-27T00:08:06.011Z,0.44
2018-12-27T00:09:05.676Z,0.37
2018-12-27T00:10:05.663Z,0.44
2018-12-27T00:11:05.651Z,0.37
2018-12-27T00:12:05.797Z,0.44
2018-12-27T00:13:05.647Z,0.44
2018-12-27T00:14:05.671Z,0.44
2018-12-27T00:15:05.682Z,0.44
2018-12-27T00:16:05.839Z,0.5
2018-12-27T00:17:05.883Z,0.5
2018-12-27T00:18:05.923Z,0.56
2018-12-27T00:19:05.848Z,0.5
2018-12-27T00:20:05.731Z,0.5
2018-12-27T00:21:05.704Z,0.5
2018-12-27T00:22:05.890Z,0.5
2018-12-27T00:23:05.667Z,0.5
2018-12-27T00:24:06.090Z,0.5
2018-12-27T00:25:05.633Z,0.5
2018-12-27T00:26:05.844Z,0.56
2018-12-27T00:27:05.681Z,0.5
2018-12-27T00:28:06.448Z,0.5
2018-12-27T00:29:05.727Z,0.5
2018-12-27T00:30:05.668Z,0.5
2018-12-27T00:31:05.641Z,0.5
2018-12-27T00:32:05.746Z,0.5
2018-12-27T00:33:05.971Z,0.5
2018-12-27T00:34:06.139Z,0.56
2018-12-27T00:35:05.775Z,0.56
2018-12-27T00:36:05.824Z,0.56
2018-12-27T00:37:05.843Z,0.5
2018-12-27T00:38:05.828Z,0.5
2018-12-27T00:39:05.766Z,0.5
2018-12-27T00:40:06.140Z,0.44
2018-12-27T00:41:05.753Z,0.44
2018-12-27T00:42:05.790Z,0.44
2018-12-27T00:43:06.001Z,0.44
2018-12-27T00:44:07.953Z,0.44
2018-12-27T00:45:06.155Z,0.37
2018-12-27T00:46:05.862Z,0.37
2018-12-27T00:47:05.678Z,0.37
2018-12-27T00:48:05.802Z,0.37
2018-12-27T00:49:05.663Z,0.37
2018-12-27T00:50:05.838Z,0.37
2018-12-27T00:51:05.820Z,0.31
2018-12-27T00:52:05.608Z,0.37
2018-12-27T00:53:05.685Z,0.31
2018-12-27T00:54:05.756Z,0.31
2018-12-27T00:55:05.660Z,0.25
2018-12-27T00:56:05.676Z,0.31
2018-12-27T00:57:05.695Z,0.31
2018-12-27T00:58:05.697Z,0.31
2018-12-27T00:59:05.677Z,0.25
2018-12-27T01:00:05.665Z,0.25
2018-12-27T01:01:05.808Z,0.19
2018-12-27T01:02:05.906Z,0.25
2018-12-27T01:03:11.754Z,0.25
2018-12-27T01:04:06.000Z,0.19
2018-12-27T01:05:05.844Z,0.25
2018-12-27T01:06:05.869Z,0.25
2018-12-27T01:07:05.850Z,0.19
2018-12-27T01:08:05.587Z,0.25
2018-12-27T01:09:05.714Z,0.19
2018-12-27T01:10:05.600Z,0.19
2018-12-27T01:11:05.828Z,0.19
2018-12-27T01:12:05.598Z,0.19
2018-12-27T01:13:05.604Z,0.13
2018-12-27T01:14:05.914Z,0.13
2018-12-27T01:15:05.826Z,0.13
2018-12-27T01:16:05.630Z,0.13
2018-12-27T01:17:05.581Z,0.13
2018-12-27T01:18:05.639Z,0.13
2018-12-27T01:19:05.752Z,0.13
2018-12-27T01:20:05.722Z,0.19
2018-12-27T01:21:05.648Z,0.19
2018-12-27T01:22:05.596Z,0.19
2018-12-27T01:23:06.459Z,0.19
2018-12-27T01:24:05.645Z,0.25
2018-12-27T01:25:05.830Z,0.25
2018-12-27T01:26:05.764Z,0.25
2018-12-27T01:27:05.700Z,0.25
2018-12-27T01:28:05.725Z,0.25
2018-12-27T01:29:05.616Z,0.25
2018-12-27T01:30:06.439Z,0.25
2018-12-27T01:31:05.939Z,0.25
2018-12-27T01:32:05.807Z,0.31
2018-12-27T01:33:05.627Z,0.31
2018-12-27T01:34:05.616Z,0.31
2018-12-27T01:35:05.552Z,0.31
2018-12-27T01:36:05.693Z,0.31
2018-12-27T01:37:05.597Z,0.31
2018-12-27T01:38:05.608Z,0.31
2018-12-27T01:39:05.587Z,0.31
2018-12-27T01:40:05.598Z,0.31
2018-12-27T01:41:05.563Z,0.25
2018-12-27T01:42:05.635Z,0.31
2018-12-27T01:43:05.615Z,0.31
2018-12-27T01:44:05.856Z,0.31
2018-12-27T01:45:05.548Z,0.31
2018-12-27T01:46:05.621Z,0.31
2018-12-27T01:47:05.522Z,0.31
2018-12-27T01:48:05.574Z,0.31
2018-12-27T01:49:05.610Z,0.31
2018-12-27T01:50:05.864Z,0.31
2018-12-27T01:51:05.586Z,0.31
2018-12-27T01:52:05.695Z,0.31
2018-12-27T01:53:05.540Z,0.31
2018-12-27T01:54:05.699Z,0.31
2018-12-27T01:55:05.548Z,0.31
2018-12-27T01:56:05.638Z,0.31
2018-12-27T01:57:05.621Z,0.31
2018-12-27T01:58:05.641Z,0.31
2018-12-27T01:59:05.677Z,0.25
2018-12-27T02:00:05.753Z,0.25
2018-12-27T02:01:06.120Z,0.19
2018-12-27T02:02:05.513Z,0.25
2018-12-27T02:03:05.522Z,0.19
2018-12-27T02:04:06.028Z,0.25
2018-12-27T02:05:05.858Z,0.25
2018-12-27T02:06:05.564Z,0.25
2018-12-27T02:07:05.652Z,0.25
2018-12-27T02:08:06.397Z,0.25
2018-12-27T02:09:05.755Z,0.25
2018-12-27T02:10:05.994Z,0.25
2018-12-27T02:11:06.155Z,0.25
2018-12-27T02:12:05.754Z,0.25
2018-12-27T02:13:05.624Z,0.25
2018-12-27T02:14:05.904Z,0.25
2018-12-27T02:15:05.759Z,0.25
2018-12-27T02:16:05.562Z,0.25
2018-12-27T02:17:05.552Z,0.31
2018-12-27T02:18:05.728Z,0.31
2018-12-27T02:19:05.733Z,0.31
2018-12-27T02:20:05.603Z,0.31
2018-12-27T02:21:05.925Z,0.31
2018-12-27T02:22:05.687Z,0.37
2018-12-27T02:23:06.361Z,0.31
2018-12-27T02:24:05.738Z,0.31
2018-12-27T02:25:05.618Z,0.31
2018-12-27T02:26:05.541Z,0.37
2018-12-27T02:27:05.995Z,0.31
2018-12-27T02:28:05.579Z,0.37
2018-12-27T02:29:05.750Z,0.31
2018-12-27T02:30:05.970Z,0.37
2018-12-27T02:31:05.882Z,0.31
2018-12-27T02:32:05.507Z,0.37
2018-12-27T02:33:06.317Z,0.31
2018-12-27T02:34:05.703Z,0.37
2018-12-27T02:35:05.506Z,0.37
2018-12-27T02:36:05.791Z,0.37
2018-12-27T02:37:05.846Z,0.31
2018-12-27T02:38:05.549Z,0.37
2018-12-27T02:39:05.492Z,0.31
2018-12-27T02:40:06.296Z,0.31
2018-12-27T02:41:05.618Z,0.31
2018-12-27T02:42:05.907Z,0.31
2018-12-27T02:43:05.569Z,0.31
2018-12-27T02:44:05.912Z,0.31
2018-12-27T02:45:06.313Z,0.31
2018-12-27T02:46:06.371Z,0.31
2018-12-27T02:47:05.571Z,0.31
2018-12-27T02:48:05.541Z,0.31
2018-12-27T02:49:05.570Z,0.31
2018-12-27T02:50:05.667Z,0.37
2018-12-27T02:51:05.672Z,0.31
2018-12-27T02:52:05.477Z,0.31
2018-12-27T02:53:05.599Z,0.31
2018-12-27T02:54:05.688Z,0.37
2018-12-27T02:55:05.602Z,0.31
2018-12-27T02:56:05.509Z,0.37
2018-12-27T02:57:05.528Z,0.31
2018-12-27T02:58:05.726Z,0.37
2018-12-27T02:59:05.979Z,0.31
2018-12-27T03:00:05.537Z,0.31
2018-12-27T03:01:05.519Z,0.31
2018-12-27T03:02:05.969Z,0.31
2018-12-27T03:03:05.703Z,0.31
2018-12-27T03:04:05.773Z,0.25
2018-12-27T03:05:05.431Z,0.25
2018-12-27T03:06:05.830Z,0.31
2018-12-27T03:07:05.509Z,0.25
2018-12-27T03:08:05.661Z,0.25
2018-12-27T03:09:05.681Z,0.19
2018-12-27T03:10:05.846Z,0.19
2018-12-27T03:11:05.784Z,0.13
2018-12-27T03:12:05.598Z,0.13
2018-12-27T03:13:06.001Z,0.13
2018-12-27T03:14:05.911Z,0.06
2018-12-27T03:15:06.330Z,-0.06
2018-12-27T03:16:05.581Z,-0.06
2018-12-27T03:17:05.450Z,-0.06
2018-12-27T03:18:05.595Z,-0.06
2018-12-27T03:19:05.613Z,-0.06
2018-12-27T03:20:05.475Z,-0.06
2018-12-27T03:21:05.767Z,0
2018-12-27T03:22:05.447Z,0
2018-12-27T03:23:05.458Z,-0.06
2018-12-27T03:24:05.526Z,0
2018-12-27T03:25:05.468Z,-0.06
2018-12-27T03:26:05.449Z,-0.13
2018-12-27T03:27:05.747Z,-0.13
2018-12-27T03:28:05.527Z,-0.06
2018-12-27T03:29:05.389Z,-0.06
2018-12-27T03:30:05.482Z,-0.06
2018-12-27T03:31:05.829Z,-0.06
2018-12-27T03:32:05.719Z,0
2018-12-27T03:33:05.508Z,0
2018-12-27T03:34:05.436Z,0
2018-12-27T03:35:05.482Z,0
2018-12-27T03:36:05.462Z,0
2018-12-27T03:37:05.419Z,0.06
2018-12-27T03:38:05.499Z,0
2018-12-27T03:39:05.712Z,0.06
2018-12-27T03:40:05.439Z,0.06
2018-12-27T03:41:05.647Z,0.06
2018-12-27T03:42:05.513Z,0.06
2018-12-27T03:43:05.586Z,0.13
2018-12-27T03:44:05.464Z,0.13
2018-12-27T03:45:05.895Z,0.13
2018-12-27T03:46:05.829Z,0.13
2018-12-27T03:47:05.977Z,0.13
2018-12-27T03:48:05.597Z,0.19
2018-12-27T03:49:05.738Z,0.25
2018-12-27T03:50:05.621Z,0.19
2018-12-27T03:51:05.383Z,0.19
2018-12-27T03:52:05.723Z,0.19
2018-12-27T03:53:05.830Z,0.19
2018-12-27T03:54:05.804Z,0.13
2018-12-27T03:55:05.391Z,0.19
2018-12-27T03:56:05.694Z,0.13
2018-12-27T03:57:05.597Z,0.19
2018-12-27T03:58:05.503Z,0.19
2018-12-27T03:59:05.369Z,0.25
2018-12-27T04:00:06.207Z,0.19
2018-12-27T04:01:05.643Z,0.25
2018-12-27T04:02:05.739Z,0.25
2018-12-27T04:03:05.592Z,0.19
2018-12-27T04:04:05.445Z,0.19
2018-12-27T04:05:05.793Z,0.19
2018-12-27T04:06:05.557Z,0.19
2018-12-27T04:07:05.583Z,0.25
2018-12-27T04:08:05.609Z,0.19
2018-12-27T04:09:05.410Z,0.25
2018-12-27T04:10:05.653Z,0.25
2018-12-27T04:11:05.548Z,0.25
2018-12-27T04:12:05.543Z,0.25
2018-12-27T04:13:06.086Z,0.25
2018-12-27T04:14:05.583Z,0.25
2018-12-27T04:15:05.378Z,0.31
2018-12-27T04:16:05.372Z,0.31
2018-12-27T04:17:05.446Z,0.31
2018-12-27T04:18:05.369Z,0.25
2018-12-27T04:19:05.427Z,0.31
2018-12-27T04:20:05.452Z,0.31
2018-12-27T04:21:05.461Z,0.31
2018-12-27T04:22:05.674Z,0.31
2018-12-27T04:23:05.371Z,0.37
2018-12-27T04:24:05.499Z,0.37
2018-12-27T04:25:06.273Z,0.44
2018-12-27T04:26:05.394Z,0.37
2018-12-27T04:27:05.555Z,0.37
2018-12-27T04:28:05.407Z,0.37
2018-12-27T04:29:05.664Z,0.37
2018-12-27T04:30:05.764Z,0.37
2018-12-27T04:31:06.183Z,0.37
2018-12-27T04:32:06.182Z,0.37
2018-12-27T04:33:05.468Z,0.31
2018-12-27T04:34:10.214Z,0.31
2018-12-27T04:35:05.407Z,0.31
2018-12-27T04:36:05.312Z,0.31
2018-12-27T04:37:05.396Z,0.31
2018-12-27T04:38:05.873Z,0.31
2018-12-27T04:39:05.718Z,0.31
2018-12-27T04:40:05.413Z,0.31
2018-12-27T04:41:06.123Z,0.31
2018-12-27T04:42:05.613Z,0.31
2018-12-27T04:43:05.478Z,0.31
2018-12-27T04:44:05.304Z,0.25
2018-12-27T04:45:05.465Z,0.31
2018-12-27T04:46:05.558Z,0.25
2018-12-27T04:47:05.536Z,0.25
2018-12-27T04:48:05.544Z,0.25
2018-12-27T04:49:05.753Z,0.19
2018-12-27T04:50:05.383Z,0.19
2018-12-27T04:51:05.347Z,0.25
2018-12-27T04:52:05.506Z,0.25
2018-12-27T04:53:05.837Z,0.25
2018-12-27T04:54:05.275Z,0.25
2018-12-27T04:55:05.246Z,0.19
2018-12-27T04:56:05.452Z,0.19
2018-12-27T04:57:05.449Z,0.25
2018-12-27T04:58:05.322Z,0.19
2018-12-27T04:59:05.321Z,0.19
2018-12-27T05:00:06.290Z,0.19
2018-12-27T05:01:05.316Z,0.25
2018-12-27T05:02:05.264Z,0.19
2018-12-27T05:03:05.285Z,0.19
2018-12-27T05:04:05.385Z,0.25
2018-12-27T05:05:05.287Z,0.25
2018-12-27T05:06:05.612Z,0.25
2018-12-27T05:07:05.368Z,0.25
2018-12-27T05:08:05.303Z,0.25
2018-12-27T05:09:05.364Z,0.25
2018-12-27T05:10:05.321Z,0.25
2018-12-27T05:11:05.410Z,0.25
2018-12-27T05:12:05.281Z,0.19
2018-12-27T05:13:05.612Z,0.25
2018-12-27T05:14:05.348Z,0.19
2018-12-27T05:15:05.321Z,0.25
2018-12-27T05:16:05.292Z,0.25
2018-12-27T05:17:05.333Z,0.25
2018-12-27T05:18:05.257Z,0.31
2018-12-27T05:19:05.269Z,0.25
2018-12-27T05:20:05.631Z,0.25
2018-12-27T05:21:05.306Z,0.25
2018-12-27T05:22:05.296Z,0.25
2018-12-27T05:23:05.534Z,0.25
2018-12-27T05:24:05.260Z,0.25
2018-12-27T05:25:05.753Z,0.25
2018-12-27T05:26:05.340Z,0.19
2018-12-27T05:27:05.581Z,0.25
2018-12-27T05:28:05.342Z,0.25
2018-12-27T05:29:05.592Z,0.19
2018-12-27T05:30:05.557Z,0.06
2018-12-27T05:31:05.448Z,-0.06
2018-12-27T05:32:05.455Z,-0.13
2018-12-27T05:33:05.347Z,-0.13
2018-12-27T05:34:05.302Z,-0.13
2018-12-27T05:35:05.360Z,-0.06
2018-12-27T05:36:05.270Z,-0.13
2018-12-27T05:37:05.772Z,-0.06
2018-12-27T05:38:05.738Z,-0.13
2018-12-27T05:39:05.610Z,-0.06
2018-12-27T05:40:05.595Z,-0.06
2018-12-27T05:41:05.279Z,-0.06
2018-12-27T05:42:05.363Z,-0.06
2018-12-27T05:43:05.565Z,0
2018-12-27T05:44:05.541Z,0
2018-12-27T05:45:05.855Z,0.06
2018-12-27T05:46:05.326Z,0.06
2018-12-27T05:47:05.684Z,0.06
2018-12-27T05:48:05.280Z,0.06
2018-12-27T05:49:05.505Z,0.06
2018-12-27T05:50:05.445Z,0.06
2018-12-27T05:51:05.284Z,0.13
2018-12-27T05:52:05.291Z,0.13
2018-12-27T05:53:05.210Z,0.13
2018-12-27T05:54:05.305Z,0.13
2018-12-27T05:55:05.355Z,0.19
2018-12-27T05:56:05.448Z,0.19
2018-12-27T05:57:05.481Z,0.19
2018-12-27T05:58:05.340Z,0.13
2018-12-27T05:59:05.212Z,0.13
2018-12-27T06:00:05.354Z,0.13
2018-12-27T06:01:05.567Z,0.13
2018-12-27T06:02:05.233Z,0.13
2018-12-27T06:03:05.719Z,0.19
2018-12-27T06:04:05.573Z,0.19
2018-12-27T06:05:05.598Z,0.19
2018-12-27T06:06:05.322Z,0.19
2018-12-27T06:07:05.438Z,0.19
2018-12-27T06:08:05.263Z,0.13
2018-12-27T06:09:05.382Z,0.19
2018-12-27T06:10:05.151Z,0.13
2018-12-27T06:11:05.418Z,0.19
2018-12-27T06:12:05.201Z,0.13
2018-12-27T06:13:05.315Z,0.13
2018-12-27T06:14:05.354Z,0.19
2018-12-27T06:15:05.205Z,0.13
2018-12-27T06:16:05.570Z,0.13
2018-12-27T06:17:05.441Z,0.13
2018-12-27T06:18:05.378Z,0.13
2018-12-27T06:19:05.389Z,0.19
2018-12-27T06:20:05.159Z,0.13
2018-12-27T06:21:05.150Z,0.13
2018-12-27T06:22:05.171Z,0.06
2018-12-27T06:23:05.490Z,0.13
2018-12-27T06:24:05.325Z,0.13
2018-12-27T06:25:05.390Z,0.19
2018-12-27T06:26:05.214Z,0.13
2018-12-27T06:27:05.440Z,0.13
2018-12-27T06:28:05.145Z,0.19
2018-12-27T06:29:05.647Z,0.19
2018-12-27T06:30:05.274Z,0.19
2018-12-27T06:31:05.640Z,0.19
2018-12-27T06:32:05.396Z,0.25
2018-12-27T06:33:05.476Z,0.25
2018-12-27T06:34:05.356Z,0.25
2018-12-27T06:35:05.431Z,0.25
2018-12-27T06:36:05.353Z,0.19
2018-12-27T06:37:05.569Z,0.25
2018-12-27T06:38:05.179Z,0.19
2018-12-27T06:39:05.182Z,0.19
2018-12-27T06:40:05.211Z,0.19
2018-12-27T06:41:05.233Z,0.19
2018-12-27T06:42:05.240Z,0.19
2018-12-27T06:43:05.200Z,0.25
2018-12-27T06:44:05.432Z,0.19
2018-12-27T06:45:05.295Z,0.19
2018-12-27T06:46:05.459Z,0.19
2018-12-27T06:47:05.177Z,0.19
2018-12-27T06:48:05.428Z,0.19
2018-12-27T06:49:05.275Z,0.19
2018-12-27T06:50:05.195Z,0.19
2018-12-27T06:51:05.310Z,0.25
2018-12-27T06:52:05.283Z,0.19
2018-12-27T06:53:05.510Z,0.25
2018-12-27T06:54:05.333Z,0.25
2018-12-27T06:55:05.175Z,0.25
2018-12-27T06:56:05.344Z,0.25
2018-12-27T06:57:05.509Z,0.31
2018-12-27T06:58:05.163Z,0.31
2018-12-27T06:59:05.264Z,0.31
2018-12-27T07:00:05.745Z,0.31
2018-12-27T07:01:05.623Z,0.31
2018-12-27T07:02:05.993Z,0.31
2018-12-27T07:03:05.127Z,0.31
2018-12-27T07:04:05.502Z,0.31
2018-12-27T07:05:05.368Z,0.31
2018-12-27T07:06:05.299Z,0.31
2018-12-27T07:07:05.616Z,0.31
2018-12-27T07:08:05.124Z,0.31
2018-12-27T07:09:05.347Z,0.31
2018-12-27T07:10:05.954Z,0.25
2018-12-27T07:11:05.436Z,0.25
2018-12-27T07:12:05.926Z,0.31
2018-12-27T07:13:05.479Z,0.25
2018-12-27T07:14:05.530Z,0.25
2018-12-27T07:15:05.119Z,0.25
2018-12-27T07:16:05.334Z,0.19
2018-12-27T07:17:05.347Z,0.25
2018-12-27T07:18:05.264Z,0.19
2018-12-27T07:19:05.112Z,0.19
2018-12-27T07:20:05.276Z,0.25
2018-12-27T07:21:05.932Z,0.19
2018-12-27T07:22:05.375Z,0.19
2018-12-27T07:23:05.549Z,0.19
2018-12-27T07:24:05.393Z,0.19
2018-12-27T07:25:05.225Z,0.19
2018-12-27T07:26:05.641Z,0.13
2018-12-27T07:27:05.410Z,0.13
2018-12-27T07:28:05.322Z,0.13
2018-12-27T07:29:05.644Z,0.13
2018-12-27T07:30:05.276Z,0.13
2018-12-27T07:31:05.343Z,0.13
2018-12-27T07:32:05.093Z,0.13
2018-12-27T07:33:05.371Z,0.13
2018-12-27T07:34:05.258Z,0.13
2018-12-27T07:35:05.431Z,0.13
2018-12-27T07:36:05.272Z,0.13
2018-12-27T07:37:05.910Z,0.13
2018-12-27T07:38:05.416Z,0.19
2018-12-27T07:39:05.275Z,0.19
2018-12-27T07:40:05.651Z,0.19
2018-12-27T07:41:05.044Z,0.19
2018-12-27T07:42:05.379Z,0.19
2018-12-27T07:43:05.884Z,0.19
2018-12-27T07:44:05.452Z,0.19
2018-12-27T07:45:05.158Z,0.19
2018-12-27T07:46:11.384Z,0.19
2018-12-27T07:47:06.015Z,0.19
2018-12-27T07:48:05.058Z,0.19
2018-12-27T07:49:05.491Z,0.25
2018-12-27T07:50:05.095Z,0.19
2018-12-27T07:51:05.166Z,0.19
2018-12-27T07:52:05.356Z,0.13
2018-12-27T07:53:05.181Z,0.19
2018-12-27T07:54:05.596Z,0.19
2018-12-27T07:55:05.053Z,0.19
2018-12-27T07:56:05.307Z,0.19
2018-12-27T07:57:05.150Z,0.19
2018-12-27T07:58:05.311Z,0.13
2018-12-27T07:59:05.454Z,0.19
2018-12-27T08:00:05.257Z,0.19
2018-12-27T08:01:05.387Z,0.25
2018-12-27T08:02:05.309Z,0.19
2018-12-27T08:03:05.064Z,0.13
2018-12-27T08:04:05.123Z,0.13
2018-12-27T08:05:05.297Z,0.13
2018-12-27T08:06:05.350Z,0.13
2018-12-27T08:07:05.242Z,0.19
2018-12-27T08:08:05.507Z,0.13
2018-12-27T08:09:05.426Z,0.13
2018-12-27T08:10:05.361Z,0.06
2018-12-27T08:11:05.476Z,0.06
2018-12-27T08:12:05.028Z,0.13
2018-12-27T08:13:05.516Z,0.13
2018-12-27T08:14:05.059Z,0.13
2018-12-27T08:15:05.860Z,0.13
2018-12-27T08:16:04.997Z,0.13
2018-12-27T08:17:05.008Z,0.13
2018-12-27T08:18:05.486Z,0.13
2018-12-27T08:19:05.083Z,0.19
2018-12-27T08:20:05.317Z,0.13
2018-12-27T08:21:05.205Z,0.19
2018-12-27T08:22:05.229Z,0.13
2018-12-27T08:23:05.178Z,0.19
2018-12-27T08:24:05.244Z,0.13
2018-12-27T08:25:05.187Z,0.13
2018-12-27T08:26:05.006Z,0.19
2018-12-27T08:27:05.216Z,0.19
2018-12-27T08:28:05.197Z,0.19
2018-12-27T08:29:05.050Z,0.19
2018-12-27T08:30:05.132Z,0.19
2018-12-27T08:31:05.036Z,0.25
2018-12-27T08:32:05.184Z,0.19
2018-12-27T08:33:05.046Z,0.25
2018-12-27T08:34:05.168Z,0.19
2018-12-27T08:35:11.984Z,0.25
2018-12-27T08:36:05.179Z,0.25
2018-12-27T08:37:05.147Z,0.25
2018-12-27T08:38:05.188Z,0.25
2018-12-27T08:39:05.296Z,0.25
2018-12-27T08:40:04.961Z,0.25
2018-12-27T08:41:05.149Z,0.25
2018-12-27T08:42:05.835Z,0.19
2018-12-27T08:43:05.162Z,0.25
2018-12-27T08:44:05.177Z,0.25
2018-12-27T08:45:05.209Z,0.31
2018-12-27T08:46:05.112Z,0.31
2018-12-27T08:47:05.372Z,0.31
2018-12-27T08:48:05.333Z,0.31
2018-12-27T08:49:05.205Z,0.37
2018-12-27T08:50:05.087Z,0.37
2018-12-27T08:51:05.163Z,0.44
2018-12-27T08:52:05.069Z,0.44
2018-12-27T08:53:04.967Z,0.44
2018-12-27T08:54:05.278Z,0.44
2018-12-27T08:55:05.000Z,0.44
2018-12-27T08:56:05.136Z,0.44
2018-12-27T08:57:05.140Z,0.5
2018-12-27T08:58:05.188Z,0.44
2018-12-27T08:59:05.210Z,0.44
2018-12-27T09:00:05.041Z,0.44
2018-12-27T09:01:05.222Z,0.44
2018-12-27T09:02:05.070Z,0.44
2018-12-27T09:03:05.359Z,0.44
2018-12-27T09:04:04.970Z,0.44
2018-12-27T09:05:05.194Z,0.37
2018-12-27T09:06:04.939Z,0.44
2018-12-27T09:07:05.092Z,0.44
2018-12-27T09:08:04.979Z,0.44
2018-12-27T09:09:05.174Z,0.44
2018-12-27T09:10:05.147Z,0.44
2018-12-27T09:11:04.946Z,0.44
2018-12-27T09:12:05.322Z,0.44
2018-12-27T09:13:05.258Z,0.44
2018-12-27T09:14:05.169Z,0.5
2018-12-27T09:15:05.342Z,0.5
2018-12-27T09:16:04.939Z,0.5
2018-12-27T09:17:05.134Z,0.5
2018-12-27T09:18:04.981Z,0.44
2018-12-27T09:19:05.152Z,0.44
2018-12-27T09:20:05.273Z,0.44
2018-12-27T09:21:05.141Z,0.37
2018-12-27T09:22:04.965Z,0.44
2018-12-27T09:23:04.909Z,0.44
2018-12-27T09:24:05.420Z,0.44
2018-12-27T09:25:05.206Z,0.44
2018-12-27T09:26:05.076Z,0.5
2018-12-27T09:27:05.101Z,0.5
2018-12-27T09:28:04.950Z,0.5
2018-12-27T09:29:05.174Z,0.5
2018-12-27T09:30:05.209Z,0.56
2018-12-27T09:31:05.009Z,0.62
2018-12-27T09:32:05.191Z,0.62
2018-12-27T09:33:04.942Z,0.62
2018-12-27T09:34:04.893Z,0.62
2018-12-27T09:35:05.156Z,0.62
2018-12-27T09:36:04.927Z,0.62
2018-12-27T09:37:05.122Z,0.62
2018-12-27T09:38:05.060Z,0.69
2018-12-27T09:39:05.064Z,0.69
2018-12-27T09:40:05.005Z,0.62
2018-12-27T09:41:06.172Z,0.62
2018-12-27T09:42:04.947Z,0.69
2018-12-27T09:43:04.971Z,0.62
2018-12-27T09:44:04.963Z,0.69
2018-12-27T09:45:04.884Z,0.62
2018-12-27T09:46:05.096Z,0.62
2018-12-27T09:47:04.907Z,0.62
2018-12-27T09:48:05.166Z,0.69
2018-12-27T09:49:05.153Z,0.69
2018-12-27T09:50:04.937Z,0.62
2018-12-27T09:51:05.395Z,0.62
2018-12-27T09:52:05.176Z,0.62
2018-12-27T09:53:05.151Z,0.62
2018-12-27T09:54:05.241Z,0.62
2018-12-27T09:55:05.233Z,0.62
2018-12-27T09:56:05.445Z,0.62
2018-12-27T09:57:04.919Z,0.62
2018-12-27T09:58:05.131Z,0.62
2018-12-27T09:59:05.157Z,0.62
2018-12-27T10:00:04.867Z,0.62
2018-12-27T10:01:08.138Z,0.62
2018-12-27T10:02:04.861Z,0.62
2018-12-27T10:03:05.570Z,0.62
2018-12-27T10:04:04.870Z,0.62
2018-12-27T10:05:05.278Z,0.62
2018-12-27T10:06:04.983Z,0.69
2018-12-27T10:07:05.144Z,0.69
2018-12-27T10:08:05.988Z,0.69
2018-12-27T10:09:04.935Z,0.75
2018-12-27T10:10:06.044Z,0.75
2018-12-27T10:11:04.919Z,0.75
2018-12-27T10:12:04.886Z,0.69
2018-12-27T10:13:04.930Z,0.69
2018-12-27T10:14:04.902Z,0.69
2018-12-27T10:15:05.251Z,0.69
2018-12-27T10:16:05.072Z,0.75
2018-12-27T10:17:04.882Z,0.69
2018-12-27T10:18:08.030Z,0.75
2018-12-27T10:19:04.934Z,0.75
2018-12-27T10:20:04.873Z,0.75
2018-12-27T10:21:05.203Z,0.75
2018-12-27T10:22:04.990Z,0.81
2018-12-27T10:23:05.582Z,0.81
2018-12-27T10:24:05.210Z,0.81
2018-12-27T10:25:04.936Z,0.75
2018-12-27T10:26:04.881Z,0.81
2018-12-27T10:27:05.661Z,0.81
2018-12-27T10:28:04.838Z,0.75
2018-12-27T10:29:04.939Z,0.81
2018-12-27T10:30:05.278Z,0.81
2018-12-27T10:31:04.953Z,0.81
2018-12-27T10:32:06.224Z,0.88
2018-12-27T10:33:05.028Z,0.88
2018-12-27T10:34:05.888Z,0.88
2018-12-27T10:35:04.875Z,0.88
2018-12-27T10:36:04.945Z,0.88
2018-12-27T10:37:08.372Z,0.88
2018-12-27T10:38:05.921Z,0.88
2018-12-27T10:39:05.915Z,0.88
2018-12-27T10:40:05.625Z,0.88
2018-12-27T10:41:05.061Z,0.81
2018-12-27T10:42:05.091Z,0.88
2018-12-27T10:43:05.630Z,0.81
2018-12-27T10:44:04.866Z,0.88
2018-12-27T10:45:04.943Z,0.88
2018-12-27T10:46:05.653Z,0.81
2018-12-27T10:47:09.990Z,0.88
2018-12-27T10:48:06.087Z,0.88
2018-12-27T10:49:04.946Z,0.88
2018-12-27T10:50:04.842Z,0.88
2018-12-27T10:51:04.833Z,0.94
2018-12-27T10:52:04.828Z,0.88
2018-12-27T10:53:04.779Z,0.88
2018-12-27T10:54:04.921Z,0.88
2018-12-27T10:55:04.880Z,0.88
2018-12-27T10:56:05.237Z,0.88
2018-12-27T10:57:04.809Z,0.88
2018-12-27T10:58:04.950Z,0.81
2018-12-27T10:59:04.834Z,0.81
2018-12-27T11:00:04.842Z,0.81
2018-12-27T11:01:04.849Z,0.81
2018-12-27T11:02:04.826Z,0.88
2018-12-27T11:03:05.067Z,0.88
2018-12-27T11:04:04.885Z,0.81
2018-12-27T11:05:04.822Z,0.81
2018-12-27T11:06:04.909Z,0.88
2018-12-27T11:07:04.784Z,0.88
2018-12-27T11:08:04.810Z,0.94
2018-12-27T11:09:04.802Z,0.94
2018-12-27T11:10:04.780Z,0.94
2018-12-27T11:11:04.881Z,0.94
2018-12-27T11:12:04.960Z,0.94
2018-12-27T11:13:04.996Z,1
2018-12-27T11:14:04.958Z,0.94
2018-12-27T11:15:05.087Z,1
2018-12-27T11:16:04.815Z,1
2018-12-27T11:17:04.851Z,1
2018-12-27T11:18:04.894Z,1
2018-12-27T11:19:05.022Z,1
2018-12-27T11:20:04.772Z,0.94
2018-12-27T11:21:04.758Z,1
2018-12-27T11:22:05.010Z,0.88
2018-12-27T11:23:04.764Z,0.88
2018-12-27T11:24:04.784Z,0.81
2018-12-27T11:25:04.743Z,0.81
2018-12-27T11:26:04.918Z,0.81
2018-12-27T11:27:04.894Z,0.88
2018-12-27T11:28:04.709Z,0.81
2018-12-27T11:29:04.869Z,0.88
2018-12-27T11:30:04.813Z,0.88
2018-12-27T11:31:04.851Z,0.88
2018-12-27T11:32:05.108Z,0.88
2018-12-27T11:33:05.018Z,0.88
2018-12-27T11:34:04.699Z,0.88
2018-12-27T11:35:04.760Z,0.94
2018-12-27T11:36:05.427Z,0.88
2018-12-27T11:37:06.395Z,0.88
2018-12-27T11:38:04.868Z,0.88
2018-12-27T11:39:05.110Z,0.94
2018-12-27T11:40:05.119Z,0.94
2018-12-27T11:41:05.122Z,1
2018-12-27T11:42:05.239Z,1
2018-12-27T11:43:05.038Z,1
2018-12-27T11:44:04.824Z,0.94
2018-12-27T11:45:04.902Z,0.94
2018-12-27T11:46:04.964Z,0.94
2018-12-27T11:47:04.947Z,0.94
2018-12-27T11:48:05.026Z,1
2018-12-27T11:49:04.710Z,1
2018-12-27T11:50:04.963Z,0.94
2018-12-27T11:51:04.992Z,1
2018-12-27T11:52:04.922Z,1
2018-12-27T11:53:04.666Z,1
2018-12-27T11:54:05.121Z,1.06
2018-12-27T11:55:04.827Z,1.06
2018-12-27T11:56:04.729Z,1.06
2018-12-27T11:57:04.884Z,1.06
2018-12-27T11:58:04.895Z,1.06
2018-12-27T11:59:04.817Z,1.06
2018-12-27T12:00:04.811Z,1.06
2018-12-27T12:01:04.786Z,1.06
2018-12-27T12:02:04.826Z,1.06
2018-12-27T12:03:05.190Z,1.06
2018-12-27T12:04:04.976Z,1.12
2018-12-27T12:05:04.724Z,1.06
2018-12-27T12:06:05.149Z,1.12
2018-12-27T12:07:04.735Z,1.12
2018-12-27T12:08:04.919Z,1.06
2018-12-27T12:09:04.756Z,1
2018-12-27T12:10:05.004Z,1.06
2018-12-27T12:11:04.781Z,1
2018-12-27T12:12:04.942Z,1.06
2018-12-27T12:13:04.760Z,1.06
2018-12-27T12:14:05.095Z,1.06
2018-12-27T12:15:04.999Z,1.06
2018-12-27T12:16:04.942Z,1.06
2018-12-27T12:17:05.358Z,1.06
2018-12-27T12:18:04.878Z,1.12
2018-12-27T12:19:04.692Z,1.06
2018-12-27T12:20:04.886Z,1.12
2018-12-27T12:21:04.851Z,1.06
2018-12-27T12:22:04.689Z,1.06
2018-12-27T12:23:04.936Z,1.06
2018-12-27T12:24:04.910Z,1.12
2018-12-27T12:25:04.776Z,1.06
2018-12-27T12:26:04.764Z,1.06
2018-12-27T12:27:04.789Z,1.06
2018-12-27T12:28:05.095Z,1.06
2018-12-27T12:29:05.045Z,1.06
2018-12-27T12:30:04.780Z,1.06
2018-12-27T12:31:05.160Z,1
2018-12-27T12:32:04.807Z,1
2018-12-27T12:33:04.812Z,0.94
2018-12-27T12:34:05.079Z,1
2018-12-27T12:35:04.778Z,1
2018-12-27T12:36:11.289Z,1
2018-12-27T12:37:04.660Z,1
2018-12-27T12:38:04.652Z,1.06
2018-12-27T12:39:04.728Z,1
2018-12-27T12:40:04.688Z,0.94
2018-12-27T12:41:04.745Z,0.88
2018-12-27T12:42:04.855Z,0.94
2018-12-27T12:43:04.740Z,0.94
2018-12-27T12:44:04.772Z,0.94
2018-12-27T12:45:04.784Z,0.88
2018-12-27T12:46:04.688Z,0.94
2018-12-27T12:47:04.664Z,0.94
2018-12-27T12:48:04.656Z,0.94
2018-12-27T12:49:04.689Z,0.94
2018-12-27T12:50:04.658Z,0.94
2018-12-27T12:51:04.637Z,1
2018-12-27T12:52:04.745Z,1
2018-12-27T12:53:04.644Z,1
2018-12-27T12:54:05.056Z,1
2018-12-27T12:55:04.800Z,1.06
2018-12-27T12:56:05.292Z,1.06
2018-12-27T12:57:04.632Z,1
2018-12-27T12:58:04.733Z,1
2018-12-27T12:59:04.655Z,1
2018-12-27T13:00:05.036Z,0.94
2018-12-27T13:01:04.856Z,0.94
2018-12-27T13:02:05.070Z,0.94
2018-12-27T13:03:05.073Z,0.94
2018-12-27T13:04:04.756Z,0.94
2018-12-27T13:05:04.881Z,0.88
2018-12-27T13:06:05.082Z,0.94
2018-12-27T13:07:05.198Z,0.94
2018-12-27T13:08:05.106Z,0.94
2018-12-27T13:09:05.150Z,0.94
2018-12-27T13:10:04.884Z,0.94
2018-12-27T13:11:04.667Z,0.94
2018-12-27T13:12:05.402Z,0.94
2018-12-27T13:13:05.440Z,0.94
2018-12-27T13:14:04.604Z,1
2018-12-27T13:15:04.776Z,0.88
2018-12-27T13:16:04.891Z,0.94
2018-12-27T13:17:04.656Z,0.94
2018-12-27T13:18:04.668Z,0.94
2018-12-27T13:19:04.910Z,0.94
2018-12-27T13:20:04.819Z,1
2018-12-27T13:21:04.642Z,0.94
2018-12-27T13:22:05.397Z,1
2018-12-27T13:23:04.607Z,1.06